createdAt,value
2022-12-22T00:00:10.215Z,49.13
2022-12-22T00:02:57.773Z,46.97
2022-12-22T00:05:43.981Z,55.88
2022-12-22T00:08:29.290Z,51.50
2022-12-22T00:11:19.191Z,53.38
2022-12-22T00:14:07.456Z,56.22
2022-12-22T00:16:57.498Z,51.35
2022-12-22T00:19:46.229Z,56.90
2022-12-22T00:22:42.735Z,59.45
2022-12-22T00:25:34.318Z,60.58
2022-12-22T00:28:31.829Z,51.75
2022-12-22T00:31:17.070Z,62.25
2022-12-22T00:34:03.048Z,52.20
2022-12-22T00:36:48.384Z,56.45
2022-12-22T00:39:33.722Z,57.75
2022-12-22T00:42:19.326Z,67.18
2022-12-22T00:45:07.721Z,66.72
2022-12-22T00:47:56.081Z,64.70
2022-12-22T00:50:53.266Z,59.47
2022-12-22T00:53:39.950Z,61.10
2022-12-22T00:56:27.852Z,70.75
2022-12-22T00:59:17.904Z,69.60
2022-12-22T01:02:09.180Z,64.32
2022-12-22T01:04:57.446Z,68.45
2022-12-22T01:07:45.290Z,62.13
2022-12-22T01:10:34.546Z,70.57
2022-12-22T01:13:19.980Z,68.78
2022-12-22T01:16:08.059Z,62.42
2022-12-22T01:18:53.580Z,67.57
2022-12-22T01:21:50.346Z,76.03
2022-12-22T01:24:37.732Z,71.00
2022-12-22T01:27:23.694Z,64.95
2022-12-22T01:30:08.954Z,64.57
2022-12-22T01:32:54.686Z,71.97
2022-12-22T01:35:46.222Z,68.05
2022-12-22T01:38:34.282Z,63.55
2022-12-22T01:41:23.607Z,71.38
2022-12-22T01:44:09.599Z,69.40
2022-12-22T01:47:05.753Z,75.55
2022-12-22T01:50:03.044Z,77.40
2022-12-22T01:52:54.880Z,72.18
2022-12-22T01:55:44.364Z,82.68
2022-12-22T01:58:48.716Z,78.43
2022-12-22T02:01:37.216Z,80.35
2022-12-22T02:04:23.967Z,75.45
2022-12-22T02:07:22.532Z,84.28
2022-12-22T02:10:17.609Z,82.75
2022-12-22T02:14:05.679Z,83.70
2022-12-22T02:17:20.212Z,85.40
2022-12-22T02:20:56.209Z,82.53
2022-12-22T02:24:12.385Z,79.90
2022-12-22T02:27:06.286Z,87.85
2022-12-22T02:30:00.236Z,82.63
2022-12-22T02:32:46.230Z,87.95
2022-12-22T02:35:35.642Z,83.55
2022-12-22T02:38:56.723Z,91.60
2022-12-22T02:42:27.228Z,89.18
2022-12-22T02:45:34.759Z,88.40
2022-12-22T02:48:30.167Z,86.72
2022-12-22T02:51:39.820Z,78.97
2022-12-22T02:54:36.609Z,80.72
2022-12-22T02:57:25.942Z,78.15
2022-12-22T03:00:11.312Z,90.38
2022-12-22T03:02:57.052Z,81.80
2022-12-22T03:05:50.498Z,73.88
2022-12-22T03:08:38.842Z,100.65
2022-12-22T03:11:24.191Z,89.45
2022-12-22T03:14:09.297Z,85.25
2022-12-22T03:16:54.641Z,79.75
2022-12-22T03:19:40.035Z,76.93
2022-12-22T03:22:25.797Z,82.57
2022-12-22T03:25:11.217Z,75.97
2022-12-22T03:27:37.999Z,97.03
2022-12-22T03:30:07.981Z,76.25
2022-12-22T03:32:34.618Z,79.70
2022-12-22T03:35:01.247Z,83.03
2022-12-22T03:37:28.021Z,69.25
2022-12-22T03:39:54.701Z,82.03
2022-12-22T03:42:42.042Z,90.03
2022-12-22T03:45:29.456Z,85.25
2022-12-22T03:47:56.078Z,86.90
2022-12-22T03:50:22.835Z,104.90
2022-12-22T03:52:49.723Z,80.40
2022-12-22T03:55:16.352Z,87.25
2022-12-22T03:57:43.010Z,88.40
2022-12-22T04:00:10.383Z,112.60
2022-12-22T04:02:37.169Z,90.35
2022-12-22T04:05:04.812Z,82.03
2022-12-22T04:07:31.589Z,90.38
2022-12-22T04:10:16.890Z,89.93
2022-12-22T04:12:55.827Z,87.05
2022-12-22T04:15:26.921Z,86.15
2022-12-22T04:17:54.516Z,109.00
2022-12-22T04:20:27.859Z,92.38
2022-12-22T04:22:59.074Z,93.57
2022-12-22T04:25:28.456Z,84.55
2022-12-22T04:27:58.576Z,89.72
2022-12-22T04:30:25.295Z,119.45
2022-12-22T04:32:52.059Z,111.57
2022-12-22T04:35:18.842Z,95.28
2022-12-22T04:37:48.490Z,97.85
2022-12-22T04:40:15.948Z,112.50
2022-12-22T04:42:44.997Z,82.35
2022-12-22T04:45:17.730Z,101.47
2022-12-22T04:47:44.608Z,139.77
2022-12-22T04:50:11.572Z,137.13
2022-12-22T04:52:38.542Z,101.00
2022-12-22T08:17:54.362Z,76.35
2022-12-22T08:20:21.062Z,73.78
2022-12-22T08:33:37.695Z,80.07
2022-12-22T08:36:15.195Z,95.47
2022-12-22T08:38:43.241Z,88.32
2022-12-22T08:41:15.191Z,79.85
2022-12-22T08:43:42.132Z,75.82
2022-12-22T08:46:08.755Z,75.80
2022-12-22T08:48:38.126Z,90.03
2022-12-22T08:51:05.282Z,72.43
2022-12-22T08:54:04.413Z,79.63
2022-12-22T08:56:18.566Z,82.82
2022-12-22T08:58:46.980Z,106.85
2022-12-22T09:01:23.503Z,98.57
2022-12-22T09:03:52.815Z,97.35
2022-12-22T09:06:27.334Z,85.57
2022-12-22T09:09:01.190Z,107.88
2022-12-22T09:11:30.448Z,90.15
2022-12-22T09:14:01.911Z,104.97
2022-12-22T09:16:33.004Z,168.55
2022-12-22T09:19:01.553Z,78.15
2022-12-22T09:21:30.538Z,127.25
2022-12-22T09:23:58.633Z,136.25
2022-12-22T09:26:32.142Z,91.05
2022-12-22T09:28:58.972Z,93.45
2022-12-22T09:31:26.870Z,103.07
2022-12-22T09:33:54.253Z,93.45
2022-12-22T09:36:28.886Z,90.22
2022-12-22T09:38:55.738Z,92.93
2022-12-22T09:41:57.767Z,140.60
2022-12-22T09:44:33.272Z,81.05
2022-12-22T09:47:17.896Z,105.28
2022-12-22T09:52:36.341Z,78.43
2022-12-22T09:55:26.004Z,75.82
2022-12-22T09:57:56.207Z,74.65
2022-12-22T10:00:27.680Z,63.40
2022-12-22T10:03:31.654Z,68.20
2022-12-22T10:06:25.775Z,59.58
2022-12-22T10:32:14.401Z,57.30
2022-12-22T10:35:03.471Z,55.65
2022-12-22T10:37:40.793Z,56.17
2022-12-22T10:40:30.387Z,52.95
2022-12-22T10:43:25.934Z,52.05
2022-12-22T10:54:36.130Z,56.03
2022-12-22T10:57:29.985Z,51.83
2022-12-22T11:08:33.709Z,48.58
2022-12-22T11:11:22.771Z,49.58
2022-12-22T11:34:54.017Z,34.88
2022-12-22T11:38:03.121Z,31.75
2022-12-22T11:40:58.436Z,34.72
2022-12-22T11:43:49.060Z,30.42
2022-12-22T11:46:38.388Z,24.17
2022-12-22T11:50:57.523Z,19.33
2022-12-22T11:53:31.845Z,19.10
2022-12-22T11:56:35.547Z,18.35
2022-12-22T11:59:47.830Z,15.85
2022-12-22T12:02:24.866Z,17.90
2022-12-22T12:05:51.815Z,17.63
2022-12-22T12:08:55.741Z,15.02
2022-12-22T12:11:47.179Z,17.25
2022-12-22T12:14:13.763Z,19.88
2022-12-22T12:17:00.998Z,16.23
2022-12-22T12:23:50.496Z,18.17
2022-12-22T12:26:31.884Z,15.35
2022-12-22T12:29:27.271Z,11.82
2022-12-22T12:32:13.319Z,12.82
2022-12-22T12:34:52.328Z,10.85
2022-12-22T12:37:49.637Z,12.35
2022-12-22T12:40:40.586Z,10.73
2022-12-22T12:43:16.597Z,13.13
2022-12-22T12:45:49.079Z,12.77
2022-12-22T12:48:25.773Z,12.23
2022-12-22T12:50:53.103Z,12.38
2022-12-22T12:53:28.532Z,12.10
2022-12-22T12:56:03.139Z,13.85
2022-12-22T12:58:37.617Z,10.85
2022-12-22T13:01:30.511Z,12.52
2022-12-22T13:04:05.867Z,11.15
2022-12-22T13:06:55.891Z,13.65
2022-12-22T13:09:50.114Z,10.63
2022-12-22T13:12:51.484Z,9.00
2022-12-22T13:15:42.383Z,10.00
2022-12-22T13:18:36.012Z,13.23
2022-12-22T13:24:26.399Z,15.40
2022-12-22T13:27:00.425Z,9.55
2022-12-22T13:29:39.262Z,12.40
2022-12-22T13:32:36.202Z,10.55
2022-12-22T13:35:30.975Z,11.18
2022-12-22T13:37:58.659Z,15.80
2022-12-22T13:40:39.453Z,10.00
2022-12-22T13:43:16.642Z,10.85
2022-12-22T13:45:58.714Z,8.65
2022-12-22T13:48:44.278Z,11.15
2022-12-22T13:51:24.861Z,14.27
2022-12-22T13:54:09.140Z,15.07
2022-12-22T13:56:46.152Z,13.95
2022-12-22T13:59:36.176Z,11.48
2022-12-22T14:02:18.453Z,12.65
2022-12-22T14:05:08.943Z,14.82
2022-12-22T14:07:36.225Z,14.65
2022-12-22T14:10:04.127Z,14.43
2022-12-22T14:12:47.119Z,11.38
2022-12-22T14:15:20.497Z,12.60
2022-12-22T14:17:52.537Z,14.20
2022-12-22T14:20:38.198Z,12.65
2022-12-22T14:23:17.615Z,16.95
2022-12-22T14:25:48.530Z,15.93
2022-12-22T14:28:27.355Z,11.57
2022-12-22T14:30:59.142Z,18.50
2022-12-22T14:33:29.876Z,15.98
2022-12-22T14:36:25.888Z,16.38
2022-12-22T14:38:56.845Z,14.45
2022-12-22T14:41:54.879Z,14.57
2022-12-22T14:44:49.211Z,14.05
2022-12-22T14:47:25.310Z,16.42
2022-12-22T14:50:19.354Z,14.05
2022-12-22T14:52:55.724Z,16.47
2022-12-22T14:55:39.344Z,19.27
2022-12-22T14:58:43.370Z,14.80
2022-12-22T15:07:54.248Z,16.88
2022-12-22T15:12:57.843Z,20.40
2022-12-22T15:59:29.978Z,18.80
2022-12-22T16:10:04.247Z,10.20
2022-12-22T16:12:33.299Z,17.17
2022-12-22T16:20:27.356Z,16.40
2022-12-22T16:34:03.980Z,20.17
2022-12-22T16:36:30.715Z,15.95
2022-12-22T16:58:27.758Z,15.90
2022-12-22T17:11:49.452Z,23.42
2022-12-22T17:14:39.101Z,21.25
2022-12-22T17:25:25.471Z,17.63
2022-12-22T17:27:52.928Z,25.17
2022-12-22T18:16:48.148Z,22.63
2022-12-22T18:19:15.080Z,22.52
2022-12-22T18:21:45.196Z,15.02
2022-12-22T18:35:07.031Z,23.77
2022-12-22T18:43:21.033Z,27.67
2022-12-22T18:45:48.108Z,19.90
2022-12-22T18:48:15.094Z,15.68
2022-12-22T18:50:46.220Z,18.92
2022-12-22T19:01:38.474Z,24.40
2022-12-22T19:04:06.844Z,20.05
2022-12-22T19:25:53.270Z,16.17
2022-12-22T19:28:36.079Z,24.35
2022-12-22T19:31:05.790Z,18.83
2022-12-22T19:44:36.161Z,18.27
2022-12-22T19:47:02.998Z,14.43
2022-12-22T19:49:29.874Z,18.33
2022-12-22T19:51:57.948Z,16.17
2022-12-22T19:57:20.819Z,15.45
2022-12-22T19:59:52.187Z,10.85
2022-12-22T20:02:36.018Z,14.50
2022-12-22T20:05:13.346Z,14.07
2022-12-22T20:07:41.796Z,12.57
2022-12-22T20:10:09.040Z,14.07
2022-12-22T20:12:42.242Z,15.93
2022-12-22T20:18:30.562Z,10.15
2022-12-22T20:21:10.812Z,15.80
2022-12-22T20:23:39.423Z,11.43
2022-12-22T20:26:15.654Z,8.05
2022-12-22T20:31:27.954Z,10.88
2022-12-22T20:33:55.399Z,10.18
2022-12-22T20:36:28.786Z,10.90
2022-12-22T20:38:59.249Z,9.30
2022-12-22T20:41:27.193Z,12.90
2022-12-22T20:43:56.598Z,9.82
2022-12-22T20:46:30.301Z,7.63
2022-12-22T20:49:02.384Z,12.77
2022-12-22T20:51:37.094Z,13.80
2022-12-22T20:54:06.886Z,11.07
2022-12-22T20:56:47.824Z,11.20
2022-12-22T20:59:24.125Z,7.95
2022-12-22T21:01:53.024Z,7.53
2022-12-22T21:04:23.061Z,9.70
2022-12-22T21:06:54.158Z,8.63
2022-12-22T21:09:23.222Z,7.43
2022-12-22T21:11:53.365Z,10.65
2022-12-22T21:14:20.205Z,15.88
2022-12-22T21:16:48.709Z,11.10
2022-12-22T21:19:19.636Z,12.98
2022-12-22T21:21:54.777Z,15.50
2022-12-22T21:24:23.414Z,12.63
2022-12-22T21:26:55.389Z,16.73
2022-12-22T21:29:26.899Z,19.80
2022-12-22T21:31:54.370Z,21.10
2022-12-22T21:34:21.641Z,21.73
2022-12-22T21:37:01.933Z,21.42
2022-12-22T21:39:44.798Z,25.63
2022-12-22T21:42:18.190Z,27.45
2022-12-22T21:44:47.725Z,24.40
2022-12-22T21:47:21.257Z,25.25
2022-12-22T21:49:48.207Z,28.58
2022-12-22T21:52:15.191Z,29.40
2022-12-22T21:54:41.837Z,25.58
2022-12-22T21:57:16.392Z,28.00
2022-12-22T21:59:47.765Z,34.65
2022-12-22T22:02:19.064Z,23.60
2022-12-22T22:04:54.467Z,36.10
2022-12-22T22:07:22.260Z,41.05
2022-12-22T22:09:51.674Z,35.90
2022-12-22T22:12:33.803Z,33.30
2022-12-22T22:15:01.844Z,41.35
2022-12-22T22:17:28.754Z,35.13
2022-12-22T22:19:55.542Z,40.88
2022-12-22T22:22:22.337Z,35.47
2022-12-22T22:24:53.977Z,36.03
2022-12-22T22:27:20.723Z,37.75
2022-12-22T22:29:47.503Z,36.13
2022-12-22T22:32:14.252Z,34.88
2022-12-22T22:34:40.909Z,33.40
2022-12-22T22:37:07.599Z,43.63
2022-12-22T22:39:34.304Z,49.60
2022-12-22T22:42:01.060Z,36.70
2022-12-22T22:44:30.610Z,40.60
2022-12-22T22:46:57.372Z,44.20
2022-12-22T22:49:28.313Z,45.60
2022-12-22T22:51:58.286Z,46.60
2022-12-22T22:54:30.474Z,46.45
2022-12-22T22:56:57.117Z,44.08
2022-12-22T22:59:24.119Z,45.72
2022-12-22T23:01:50.873Z,44.22
2022-12-22T23:04:18.018Z,46.17
2022-12-22T23:06:47.462Z,42.65
2022-12-22T23:09:14.191Z,53.90
2022-12-22T23:11:40.892Z,44.28
2022-12-22T23:14:08.338Z,46.38
2022-12-22T23:16:38.708Z,50.00
2022-12-22T23:19:06.601Z,50.53
2022-12-22T23:21:36.281Z,48.25
2022-12-22T23:24:07.811Z,48.15
2022-12-22T23:26:35.583Z,55.88
2022-12-22T23:29:03.971Z,56.22
2022-12-22T23:31:36.568Z,57.53
2022-12-22T23:34:04.201Z,49.85
2022-12-22T23:36:38.252Z,49.42
2022-12-22T23:39:05.398Z,62.35
2022-12-22T23:41:32.087Z,54.70
2022-12-22T23:43:58.918Z,55.92
2022-12-22T23:46:25.747Z,54.72
2022-12-22T23:48:56.893Z,59.13
2022-12-22T23:51:27.717Z,63.03
2022-12-22T23:54:01.506Z,61.38
2022-12-22T23:56:31.258Z,62.53
2022-12-22T23:58:58.634Z,61.47
